createdAt,value
2023-02-02T00:00:21.213Z,100395.59
2023-02-02T00:01:24.133Z,100402.44
2023-02-02T00:02:25.972Z,100398.03
2023-02-02T00:03:27.839Z,100392.84
2023-02-02T00:04:35.477Z,100396.16
2023-02-02T00:05:37.788Z,100395.31
2023-02-02T00:06:39.600Z,100394.38
2023-02-02T00:07:41.382Z,100393.38
2023-02-02T00:08:43.460Z,100398.47
2023-02-02T00:09:45.384Z,100397.72
2023-02-02T00:10:48.058Z,100401.03
2023-02-02T00:11:51.212Z,100397.50
2023-02-02T00:12:54.099Z,100400.03
2023-02-02T00:13:55.946Z,100406.84
2023-02-02T00:14:58.276Z,100399.13
2023-02-02T00:16:41.087Z,100407.66
2023-02-02T00:17:42.981Z,100400.75
2023-02-02T00:18:44.784Z,100402.38
2023-02-02T00:19:46.918Z,100399.66
2023-02-02T00:20:51.736Z,100398.72
2023-02-02T00:21:55.150Z,100406.38
2023-02-02T00:22:57.544Z,100399.53
2023-02-02T00:23:59.397Z,100398.59
2023-02-02T00:25:01.192Z,100391.69
2023-02-02T00:26:03.123Z,100395.09
2023-02-02T00:27:05.241Z,100390.81
2023-02-02T00:28:07.101Z,100386.53
2023-02-02T00:29:17.630Z,100384.94
2023-02-02T00:30:19.721Z,100385.81
2023-02-02T00:31:21.949Z,100397.84
2023-02-02T00:32:24.002Z,100394.41
2023-02-02T00:33:25.780Z,100393.44
2023-02-02T00:34:27.557Z,100408.88
2023-02-02T00:35:29.688Z,100394.19
2023-02-02T00:36:31.612Z,100395.88
2023-02-02T00:37:33.839Z,100400.97
2023-02-02T00:38:37.881Z,100394.00
2023-02-02T00:39:39.793Z,100394.81
2023-02-02T00:40:41.582Z,100387.03
2023-02-02T00:41:43.370Z,100389.53
2023-02-02T00:42:49.253Z,100388.63
2023-02-02T00:44:11.007Z,100390.41
2023-02-02T00:45:17.270Z,100389.44
2023-02-02T00:46:19.165Z,100392.03
2023-02-02T00:47:20.991Z,100384.22
2023-02-02T00:48:23.187Z,100389.38
2023-02-02T00:49:25.402Z,100382.47
2023-02-02T00:50:27.405Z,100388.34
2023-02-02T00:51:29.504Z,100378.94
2023-02-02T00:52:31.313Z,100372.31
2023-02-02T00:53:33.193Z,100374.09
2023-02-02T00:54:35.044Z,100371.59
2023-02-02T00:55:36.963Z,100367.31
2023-02-02T00:56:38.868Z,100377.59
2023-02-02T00:57:41.434Z,100374.09
2023-02-02T00:58:43.439Z,100378.34
2023-02-02T00:59:45.286Z,100372.31
2023-02-02T01:00:47.219Z,100368.06
2023-02-02T01:01:49.341Z,100369.75
2023-02-02T01:04:21.794Z,100368.81
2023-02-02T01:05:24.397Z,100373.81
2023-02-02T01:06:26.570Z,100368.66
2023-02-02T01:07:28.633Z,100369.50
2023-02-02T01:08:30.593Z,100377.19
2023-02-02T01:09:32.496Z,100381.53
2023-02-02T01:10:35.179Z,100379.78
2023-02-02T01:11:37.765Z,100384.09
2023-02-02T01:12:40.028Z,100378.06
2023-02-02T01:13:42.054Z,100377.19
2023-02-02T01:14:44.088Z,100376.31
2023-02-02T01:15:46.054Z,100383.97
2023-02-02T01:16:48.493Z,100383.81
2023-02-02T01:17:50.615Z,100382.06
2023-02-02T01:18:53.236Z,100376.94
2023-02-02T01:19:55.198Z,100378.63
2023-02-02T01:21:09.057Z,100386.25
2023-02-02T01:22:11.054Z,100381.94
2023-02-02T01:23:13.109Z,100385.25
2023-02-02T01:24:15.311Z,100385.19
2023-02-02T01:25:17.525Z,100379.13
2023-02-02T01:26:19.481Z,100371.28
2023-02-02T01:27:21.551Z,100382.41
2023-02-02T01:28:24.334Z,100380.56
2023-02-02T01:29:26.390Z,100384.00
2023-02-02T01:30:28.456Z,100384.78
2023-02-02T01:31:30.412Z,100386.38
2023-02-02T01:32:32.390Z,100392.41
2023-02-02T01:33:34.411Z,100388.00
2023-02-02T01:34:36.722Z,100383.72
2023-02-02T01:35:48.093Z,100384.56
2023-02-02T01:36:50.109Z,100375.97
2023-02-02T01:37:52.307Z,100376.78
2023-02-02T01:38:55.347Z,100382.72
2023-02-02T01:39:57.332Z,100382.84
2023-02-02T01:40:59.832Z,100373.31
2023-02-02T01:42:01.981Z,100377.56
2023-02-02T01:43:04.548Z,100379.34
2023-02-02T01:44:27.278Z,100382.81
2023-02-02T01:45:29.878Z,100375.00
2023-02-02T01:46:32.961Z,100380.09
2023-02-02T01:47:47.930Z,100372.44
2023-02-02T01:49:15.746Z,100370.56
2023-02-02T01:50:19.603Z,100374.00
2023-02-02T01:51:24.844Z,100372.16
2023-02-02T01:52:29.666Z,100379.06
2023-02-02T01:53:32.910Z,100367.03
2023-02-02T01:54:38.720Z,100371.28
2023-02-02T01:55:42.470Z,100366.97
2023-02-02T01:56:51.877Z,100372.97
2023-02-02T01:58:09.061Z,100384.13
2023-02-02T01:59:14.320Z,100383.25
2023-02-02T02:00:18.953Z,100390.88
2023-02-02T02:01:20.906Z,100387.44
2023-02-02T02:02:25.066Z,100392.56
2023-02-02T02:03:29.932Z,100389.13
2023-02-02T02:04:32.835Z,100385.69
2023-02-02T02:05:52.270Z,100384.81
2023-02-02T02:06:54.378Z,100386.47
2023-02-02T02:08:04.284Z,100382.16
2023-02-02T02:09:07.479Z,100382.16
2023-02-02T02:10:10.046Z,100377.75
2023-02-02T02:11:12.007Z,100376.88
2023-02-02T02:12:15.703Z,100372.56
2023-02-02T02:13:19.494Z,100375.03
2023-02-02T02:14:41.218Z,100376.75
2023-02-02T02:16:20.100Z,100375.00
2023-02-02T02:18:00.611Z,100372.41
2023-02-02T02:19:36.846Z,100373.22
2023-02-02T02:21:30.274Z,100372.28
2023-02-02T02:23:22.867Z,100378.34
2023-02-02T02:25:03.003Z,100375.72
2023-02-02T02:26:36.668Z,100380.84
2023-02-02T02:28:11.274Z,100386.75
2023-02-02T02:29:50.628Z,100386.63
2023-02-02T02:31:02.136Z,100393.38
2023-02-02T02:32:13.028Z,100390.75
2023-02-02T02:33:40.855Z,100389.72
2023-02-02T02:34:53.546Z,100386.19
2023-02-02T02:36:07.598Z,100390.50
2023-02-02T02:37:23.267Z,100386.19
2023-02-02T02:38:38.288Z,100392.16
2023-02-02T02:39:49.162Z,100392.94
2023-02-02T02:41:03.767Z,100393.75
2023-02-02T02:42:13.777Z,100399.69
2023-02-02T02:43:19.857Z,100400.34
2023-02-02T02:44:23.086Z,100396.03
2023-02-02T02:45:28.321Z,100394.25
2023-02-02T02:46:31.188Z,100393.31
2023-02-02T02:47:35.092Z,100399.22
2023-02-02T02:48:37.457Z,100391.38
2023-02-02T02:49:43.935Z,100394.84
2023-02-02T02:50:45.943Z,100402.63
2023-02-02T02:51:49.518Z,100400.88
2023-02-02T02:53:00.738Z,100395.59
2023-02-02T02:54:03.306Z,100398.00
2023-02-02T02:55:07.355Z,100391.09
2023-02-02T02:56:22.753Z,100395.44
2023-02-02T02:57:39.863Z,100389.59
2023-02-02T02:58:50.356Z,100396.47
2023-02-02T03:00:11.411Z,100383.53
2023-02-02T03:01:32.228Z,100387.06
2023-02-02T03:02:42.757Z,100382.75
2023-02-02T03:04:12.969Z,100379.31
2023-02-02T03:05:20.749Z,100376.50
2023-02-02T03:06:34.632Z,100375.69
2023-02-02T03:07:43.637Z,100378.94
2023-02-02T03:09:00.919Z,100386.34
2023-02-02T03:10:06.639Z,100382.16
2023-02-02T03:11:11.547Z,100382.03
2023-02-02T03:12:16.051Z,100382.03
2023-02-02T03:13:18.447Z,100373.56
2023-02-02T03:14:20.575Z,100381.06
2023-02-02T03:15:23.057Z,100373.34
2023-02-02T03:16:25.144Z,100372.41
2023-02-02T03:17:28.387Z,100377.53
2023-02-02T03:18:33.030Z,100363.63
2023-02-02T03:19:35.196Z,100370.06
2023-02-02T03:20:37.328Z,100367.34
2023-02-02T03:21:39.269Z,100364.03
2023-02-02T03:22:41.169Z,100368.50
2023-02-02T03:23:43.167Z,100380.16
2023-02-02T03:24:45.138Z,100375.91
2023-02-02T03:25:47.994Z,100380.78
2023-02-02T03:26:50.078Z,100379.72
2023-02-02T03:27:52.826Z,100383.88
2023-02-02T03:28:57.540Z,100390.75
2023-02-02T03:30:00.049Z,100390.69
2023-02-02T03:31:02.596Z,100376.91
2023-02-02T03:32:04.947Z,100378.59
2023-02-02T03:33:07.518Z,100381.06
2023-02-02T03:34:09.616Z,100381.88
2023-02-02T03:35:11.612Z,100371.63
2023-02-02T03:36:13.769Z,100377.47
2023-02-02T03:37:16.440Z,100388.56
2023-02-02T03:38:18.434Z,100395.28
2023-02-02T03:39:20.413Z,100394.34
2023-02-02T03:40:22.426Z,100391.78
2023-02-02T03:41:25.552Z,100383.03
2023-02-02T03:42:27.607Z,100377.75
2023-02-02T03:43:29.495Z,100387.13
2023-02-02T03:44:31.492Z,100386.97
2023-02-02T03:45:35.590Z,100394.59
2023-02-02T03:46:37.673Z,100391.13
2023-02-02T03:47:39.732Z,100398.03
2023-02-02T03:48:41.997Z,100400.59
2023-02-02T03:49:44.039Z,100400.50
2023-02-02T03:50:46.119Z,100397.94
2023-02-02T03:51:48.391Z,100393.69
2023-02-02T03:52:50.467Z,100392.75
2023-02-02T03:53:52.617Z,100391.78
2023-02-02T03:54:54.858Z,100392.66
2023-02-02T03:55:56.845Z,100393.53
2023-02-02T03:56:58.801Z,100385.06
2023-02-02T03:58:00.742Z,100388.25
2023-02-02T03:59:02.916Z,100379.78
2023-02-02T04:00:05.624Z,100390.03
2023-02-02T04:01:11.677Z,100391.78
2023-02-02T04:02:13.691Z,100384.91
2023-02-02T04:03:15.651Z,100385.78
2023-02-02T04:04:17.760Z,100388.25
2023-02-02T04:05:19.799Z,100383.13
2023-02-02T04:06:22.330Z,100388.25
2023-02-02T04:07:24.543Z,100385.69
2023-02-02T04:08:28.875Z,100385.78
2023-02-02T04:09:33.261Z,100389.22
2023-02-02T04:10:35.241Z,100393.38
2023-02-02T04:11:38.862Z,100395.94
2023-02-02T04:12:41.430Z,100384.75
2023-02-02T04:13:46.123Z,100385.63
2023-02-02T04:14:48.210Z,100393.31
2023-02-02T04:15:58.113Z,100395.06
2023-02-02T04:17:00.153Z,100398.50
2023-02-02T04:18:02.251Z,100396.75
2023-02-02T04:19:05.269Z,100398.34
2023-02-02T04:20:07.803Z,100401.72
2023-02-02T04:21:09.851Z,100399.00
2023-02-02T04:22:11.942Z,100399.00
2023-02-02T04:23:14.400Z,100403.09
2023-02-02T04:24:16.704Z,100398.03
2023-02-02T04:25:18.618Z,100398.94
2023-02-02T04:26:20.936Z,100406.69
2023-02-02T04:27:23.387Z,100399.81
2023-02-02T04:28:26.688Z,100401.56
2023-02-02T04:29:28.618Z,100405.72
2023-02-02T04:30:30.892Z,100404.94
2023-02-02T04:31:33.142Z,100396.44
2023-02-02T04:32:36.350Z,100402.44
2023-02-02T04:33:38.240Z,100395.47
2023-02-02T04:34:40.307Z,100391.31
2023-02-02T04:35:45.663Z,100399.81
2023-02-02T04:36:47.818Z,100390.34
2023-02-02T04:37:49.805Z,100400.69
2023-02-02T04:38:53.023Z,100399.81
2023-02-02T04:39:55.541Z,100400.69
2023-02-02T04:41:00.024Z,100395.56
2023-02-02T04:42:02.032Z,100400.03
2023-02-02T04:43:06.151Z,100405.09
2023-02-02T04:44:17.050Z,100393.88
2023-02-02T04:45:19.106Z,100395.63
2023-02-02T04:46:21.066Z,100393.16
2023-02-02T04:47:22.957Z,100390.03
2023-02-02T04:48:25.052Z,100398.91
2023-02-02T04:49:27.124Z,100394.19
2023-02-02T04:50:29.658Z,100396.25
2023-02-02T04:51:31.829Z,100393.16
2023-02-02T04:52:33.990Z,100398.59
2023-02-02T04:53:36.580Z,100400.84
2023-02-02T04:54:38.850Z,100395.28
2023-02-02T04:55:40.937Z,100396.38
2023-02-02T04:56:42.962Z,100396.59
2023-02-02T04:57:44.993Z,100394.19
2023-02-02T04:58:49.670Z,100395.94
2023-02-02T04:59:51.683Z,100397.78
2023-02-02T05:00:53.757Z,100410.19
2023-02-02T05:01:59.742Z,100405.44
2023-02-02T05:03:01.736Z,100404.84
2023-02-02T05:04:03.861Z,100409.34
2023-02-02T05:05:10.594Z,100408.00
2023-02-02T05:06:15.548Z,100412.31
2023-02-02T05:07:18.094Z,100405.66
2023-02-02T05:08:20.039Z,100400.97
2023-02-02T05:09:22.208Z,100407.13
2023-02-02T05:10:24.230Z,100410.69
2023-02-02T05:11:26.192Z,100405.56
2023-02-02T05:12:30.812Z,100406.53
2023-02-02T05:13:32.882Z,100403.13
2023-02-02T05:14:34.900Z,100410.09
2023-02-02T05:15:36.914Z,100408.94
2023-02-02T05:16:39.847Z,100412.56
2023-02-02T05:17:44.159Z,100415.84
2023-02-02T05:18:51.727Z,100409.78
2023-02-02T05:19:53.596Z,100405.91
2023-02-02T05:20:55.573Z,100403.78
2023-02-02T05:21:57.540Z,100399.69
2023-02-02T05:22:59.494Z,100404.69
2023-02-02T05:24:03.048Z,100407.09
2023-02-02T05:25:06.945Z,100397.78
2023-02-02T05:26:16.014Z,100403.59
2023-02-02T05:27:17.975Z,100395.00
2023-02-02T05:28:21.156Z,100400.34
2023-02-02T05:29:23.145Z,100400.28
2023-02-02T05:30:25.197Z,100399.38
2023-02-02T05:31:27.573Z,100395.34
2023-02-02T05:32:29.963Z,100401.00
2023-02-02T05:33:32.528Z,100394.63
2023-02-02T05:34:34.435Z,100397.28
2023-02-02T05:35:36.484Z,100394.09
2023-02-02T05:36:38.426Z,100387.59
2023-02-02T05:37:43.373Z,100389.59
2023-02-02T05:38:45.429Z,100394.81
2023-02-02T05:39:47.418Z,100391.69
2023-02-02T05:40:50.025Z,100383.53
2023-02-02T05:41:54.377Z,100379.22
2023-02-02T05:42:56.312Z,100381.53
2023-02-02T05:44:02.045Z,100380.38
2023-02-02T05:45:04.290Z,100379.28
2023-02-02T05:46:06.496Z,100380.09
2023-02-02T05:47:09.526Z,100382.56
2023-02-02T05:48:14.995Z,100383.44
2023-02-02T05:49:17.123Z,100378.41
2023-02-02T05:50:19.245Z,100390.44
2023-02-02T05:51:33.719Z,100388.53
2023-02-02T05:52:38.513Z,100393.97
2023-02-02T05:53:40.625Z,100391.66
2023-02-02T05:54:42.558Z,100402.09
2023-02-02T05:55:47.003Z,100395.69
2023-02-02T05:56:50.955Z,100408.28
2023-02-02T05:57:52.882Z,100419.88
2023-02-02T05:58:55.126Z,100427.09
2023-02-02T05:59:57.190Z,100423.44
2023-02-02T06:00:59.127Z,100407.84
2023-02-02T06:02:01.297Z,100404.16
2023-02-02T06:03:05.392Z,100416.88
2023-02-02T06:04:07.599Z,100421.13
2023-02-02T06:05:09.944Z,100410.91
2023-02-02T06:06:13.028Z,100411.56
2023-02-02T06:07:15.063Z,100414.28
2023-02-02T06:08:17.089Z,100416.88
2023-02-02T06:09:19.312Z,100419.47
2023-02-02T06:10:21.223Z,100422.16
2023-02-02T06:11:23.323Z,100422.16
2023-02-02T06:12:25.488Z,100409.34
2023-02-02T06:13:27.558Z,100416.34
2023-02-02T06:14:29.704Z,100421.31
2023-02-02T06:15:33.246Z,100437.56
2023-02-02T06:16:35.390Z,100436.88
2023-02-02T06:17:37.464Z,100439.44
2023-02-02T06:18:39.502Z,100427.56
2023-02-02T06:19:41.460Z,100437.69
2023-02-02T06:20:43.518Z,100431.88
2023-02-02T06:21:45.513Z,100438.13
2023-02-02T06:22:48.669Z,100446.84
2023-02-02T06:23:51.587Z,100441.88
2023-02-02T06:24:53.657Z,100447.09
2023-02-02T06:25:55.668Z,100428.25
2023-02-02T06:26:57.650Z,100432.84
2023-02-02T06:28:01.060Z,100434.53
2023-02-02T06:29:03.204Z,100434.59
2023-02-02T06:30:05.486Z,100437.47
2023-02-02T06:31:11.292Z,100429.03
2023-02-02T06:32:13.392Z,100426.69
2023-02-02T06:33:15.692Z,100439.59
2023-02-02T06:34:17.800Z,100437.25
2023-02-02T06:35:20.404Z,100439.75
2023-02-02T06:36:23.036Z,100436.63
2023-02-02T06:37:24.997Z,100434.22
2023-02-02T06:38:27.171Z,100441.19
2023-02-02T06:39:29.259Z,100438.81
2023-02-02T06:40:31.389Z,100438.97
2023-02-02T06:41:35.510Z,100445.06
2023-02-02T06:42:37.703Z,100443.28
2023-02-02T06:43:39.859Z,100445.56
2023-02-02T06:44:41.845Z,100442.13
2023-02-02T06:45:43.847Z,100447.41
2023-02-02T06:46:45.721Z,100443.38
2023-02-02T06:47:47.638Z,100436.75
2023-02-02T06:48:49.804Z,100437.34
2023-02-02T06:49:51.842Z,100435.53
2023-02-02T06:50:54.373Z,100436.41
2023-02-02T06:51:56.375Z,100433.81
2023-02-02T06:52:58.341Z,100436.63
2023-02-02T06:54:00.350Z,100439.69
2023-02-02T06:55:02.391Z,100438.97
2023-02-02T06:56:07.559Z,100441.66
2023-02-02T06:57:16.695Z,100439.06
2023-02-02T06:58:18.888Z,100447.78
2023-02-02T06:59:20.839Z,100451.31
2023-02-02T07:00:22.946Z,100450.78
2023-02-02T07:01:24.919Z,100446.72
2023-02-02T07:02:27.151Z,100449.59
2023-02-02T07:03:31.296Z,100447.75
2023-02-02T07:04:33.182Z,100447.88
2023-02-02T07:05:35.089Z,100450.50
2023-02-02T07:06:37.029Z,100451.47
2023-02-02T07:07:39.033Z,100453.38
2023-02-02T07:08:41.229Z,100452.72
2023-02-02T07:09:43.390Z,100450.19
2023-02-02T07:11:13.314Z,100445.19
2023-02-02T07:12:07.456Z,100436.75
2023-02-02T07:13:09.342Z,100446.38
2023-02-02T07:14:12.239Z,100443.25
2023-02-02T07:15:14.289Z,100438.81
2023-02-02T07:16:17.763Z,100440.97
2023-02-02T07:17:22.825Z,100436.47
2023-02-02T07:18:24.860Z,100439.72
2023-02-02T07:19:27.027Z,100441.56
2023-02-02T07:20:29.662Z,100440.72
2023-02-02T07:21:36.205Z,100440.06
2023-02-02T07:22:41.894Z,100442.44
2023-02-02T07:23:43.917Z,100435.81
2023-02-02T07:24:45.863Z,100438.38
2023-02-02T07:25:47.994Z,100442.56
2023-02-02T07:26:50.060Z,100444.78
2023-02-02T07:27:55.570Z,100441.78
2023-02-02T07:28:57.624Z,100451.19
2023-02-02T07:29:59.723Z,100455.50
2023-02-02T07:31:12.369Z,100450.38
2023-02-02T07:32:14.471Z,100455.78
2023-02-02T07:33:16.395Z,100459.03
2023-02-02T07:34:18.512Z,100462.22
2023-02-02T07:35:20.419Z,100462.94
2023-02-02T07:36:24.588Z,100460.50
2023-02-02T07:37:26.736Z,100455.59
2023-02-02T07:38:28.695Z,100461.63
2023-02-02T07:39:30.654Z,100461.06
2023-02-02T07:40:32.843Z,100450.06
2023-02-02T07:41:37.137Z,100448.75
2023-02-02T07:42:39.511Z,100459.41
2023-02-02T07:43:41.842Z,100454.69
2023-02-02T07:44:43.793Z,100451.66
2023-02-02T07:45:45.892Z,100449.50
2023-02-02T07:46:48.203Z,100453.06
2023-02-02T07:47:56.316Z,100450.63
2023-02-02T07:48:58.373Z,100452.34
2023-02-02T07:50:00.271Z,100458.28
2023-02-02T07:51:03.822Z,100453.94
2023-02-02T07:52:05.933Z,100460.09
2023-02-02T07:53:08.002Z,100446.59
2023-02-02T07:54:10.245Z,100445.75
2023-02-02T07:55:14.742Z,100450.69
2023-02-02T07:56:19.777Z,100444.53
2023-02-02T07:57:21.734Z,100449.06
2023-02-02T07:58:23.636Z,100447.72
2023-02-02T07:59:25.862Z,100443.47
2023-02-02T08:00:28.467Z,100440.66
2023-02-02T08:01:30.573Z,100436.47
2023-02-02T08:02:32.747Z,100444.19
2023-02-02T08:03:36.141Z,100435.53
2023-02-02T08:04:38.099Z,100437.34
2023-02-02T08:05:40.131Z,100437.56
2023-02-02T08:06:45.143Z,100433.44
2023-02-02T08:07:48.612Z,100433.44
2023-02-02T08:08:51.101Z,100435.31
2023-02-02T08:09:53.036Z,100426.97
2023-02-02T08:10:55.068Z,100424.94
2023-02-02T08:12:01.827Z,100435.09
2023-02-02T08:13:03.991Z,100432.25
2023-02-02T08:14:06.617Z,100437.50
2023-02-02T08:15:09.262Z,100432.34
2023-02-02T08:16:12.578Z,100433.44
2023-02-02T08:17:14.750Z,100435.84
2023-02-02T08:18:17.265Z,100435.09
2023-02-02T08:19:19.431Z,100434.84
2023-02-02T08:20:21.580Z,100442.06
2023-02-02T08:21:23.848Z,100441.41
2023-02-02T08:22:25.816Z,100428.97
2023-02-02T08:23:28.200Z,100436.03
2023-02-02T08:24:30.107Z,100428.34
2023-02-02T08:25:32.266Z,100423.22
2023-02-02T08:26:34.411Z,100421.22
2023-02-02T08:27:37.922Z,100425.34
2023-02-02T08:28:41.660Z,100421.97
2023-02-02T08:29:43.892Z,100417.44
2023-02-02T08:30:46.635Z,100416.59
2023-02-02T08:31:48.744Z,100416.06
2023-02-02T08:32:50.899Z,100414.16
2023-02-02T08:33:58.636Z,100409.88
2023-02-02T08:35:00.877Z,100415.16
2023-02-02T08:36:04.286Z,100417.09
2023-02-02T08:37:06.458Z,100412.91
2023-02-02T08:38:08.541Z,100418.19
2023-02-02T08:39:13.088Z,100420.50
2023-02-02T08:40:15.311Z,100420.50
2023-02-02T08:41:19.824Z,100430.88
2023-02-02T08:42:21.820Z,100434.50
2023-02-02T08:43:23.857Z,100427.00
2023-02-02T08:44:27.911Z,100433.25
2023-02-02T08:46:03.432Z,100427.56
2023-02-02T08:47:06.909Z,100428.75
2023-02-02T08:48:12.186Z,100431.34
2023-02-02T08:49:15.494Z,100428.06
2023-02-02T08:50:18.464Z,100434.31
2023-02-02T08:51:20.672Z,100433.56
2023-02-02T08:52:24.848Z,100423.38
2023-02-02T08:53:28.922Z,100433.91
2023-02-02T08:54:30.867Z,100431.00
2023-02-02T08:55:32.835Z,100435.69
2023-02-02T08:56:34.825Z,100430.91
2023-02-02T08:57:37.111Z,100433.00
2023-02-02T08:58:39.579Z,100435.03
2023-02-02T08:59:41.580Z,100438.72
2023-02-02T09:00:43.596Z,100442.38
2023-02-02T09:01:45.645Z,100441.66
2023-02-02T09:02:51.517Z,100438.38
2023-02-02T09:04:16.388Z,100438.50
2023-02-02T09:05:18.937Z,100430.97
2023-02-02T09:06:21.487Z,100436.38
2023-02-02T09:07:23.508Z,100445.13
2023-02-02T09:08:25.654Z,100441.03
2023-02-02T09:09:27.614Z,100445.59
2023-02-02T09:10:32.204Z,100445.94
2023-02-02T09:11:35.275Z,100452.19
2023-02-02T09:12:37.207Z,100452.06
2023-02-02T09:13:40.517Z,100448.50
2023-02-02T09:14:42.420Z,100452.72
2023-02-02T09:15:44.632Z,100462.09
2023-02-02T09:16:46.692Z,100446.63
2023-02-02T09:17:48.952Z,100437.03
2023-02-02T09:18:50.957Z,100434.25
2023-02-02T09:19:52.912Z,100447.56
2023-02-02T09:20:55.004Z,100445.56
2023-02-02T09:21:57.303Z,100454.13
2023-02-02T09:22:59.224Z,100454.88
2023-02-02T09:24:01.394Z,100449.84
2023-02-02T09:25:03.438Z,100452.50
2023-02-02T09:26:17.270Z,100452.38
2023-02-02T09:27:20.202Z,100451.28
2023-02-02T09:28:22.199Z,100449.50
2023-02-02T09:29:24.253Z,100460.53
2023-02-02T09:30:26.500Z,100450.91
2023-02-02T09:31:29.635Z,100460.19
2023-02-02T09:32:34.284Z,100456.50
2023-02-02T09:33:37.172Z,100461.56
2023-02-02T09:34:40.194Z,100460.66
2023-02-02T09:35:43.190Z,100456.28
2023-02-02T09:36:45.436Z,100461.38
2023-02-02T09:37:47.582Z,100473.25
2023-02-02T09:38:51.205Z,100472.38
2023-02-02T09:39:53.314Z,100465.75
2023-02-02T09:40:55.293Z,100451.53
2023-02-02T09:42:09.346Z,100456.91
2023-02-02T09:43:42.968Z,100448.38
2023-02-02T09:45:02.613Z,100444.66
2023-02-02T09:46:40.682Z,100445.00
2023-02-02T09:47:45.547Z,100442.38
2023-02-02T09:49:08.363Z,100451.41
2023-02-02T09:50:29.834Z,100456.56
2023-02-02T09:51:43.841Z,100447.16
2023-02-02T09:52:59.827Z,100448.09
2023-02-02T09:54:28.151Z,100442.81
2023-02-02T09:55:36.873Z,100437.69
2023-02-02T09:56:43.793Z,100441.13
2023-02-02T09:58:01.775Z,100439.28
2023-02-02T09:59:19.374Z,100431.06
2023-02-02T10:01:07.126Z,100436.38
2023-02-02T10:02:40.784Z,100436.50
2023-02-02T10:04:04.446Z,100454.78
2023-02-02T10:05:15.476Z,100450.56
2023-02-02T10:06:43.976Z,100449.03
2023-02-02T10:07:52.281Z,100453.38
2023-02-02T10:08:59.255Z,100455.22
2023-02-02T10:11:55.721Z,100461.09
2023-02-02T10:13:06.933Z,100454.88
2023-02-02T10:14:20.447Z,100469.34
2023-02-02T10:15:44.659Z,100466.88
2023-02-02T10:16:49.809Z,100466.69
2023-02-02T10:17:57.197Z,100474.50
2023-02-02T10:19:10.195Z,100461.41
2023-02-02T10:20:33.644Z,100463.13
2023-02-02T10:21:35.987Z,100451.06
2023-02-02T10:22:38.227Z,100450.75
2023-02-02T10:23:44.445Z,100445.28
2023-02-02T10:24:46.459Z,100437.50
2023-02-02T10:26:22.623Z,100436.97
2023-02-02T10:28:09.389Z,100439.56
2023-02-02T10:29:11.223Z,100439.38
2023-02-02T10:30:30.289Z,100450.69
2023-02-02T10:31:32.304Z,100437.91
2023-02-02T10:32:49.756Z,100457.13
2023-02-02T10:34:16.462Z,100455.25
2023-02-02T10:35:27.602Z,100458.19
2023-02-02T10:36:40.227Z,100452.72
2023-02-02T10:38:12.065Z,100458.88
2023-02-02T10:39:36.187Z,100459.84
2023-02-02T10:40:44.262Z,100444.38
2023-02-02T10:42:23.103Z,100443.94
2023-02-02T10:43:46.332Z,100429.53
2023-02-02T10:45:08.725Z,100431.41
2023-02-02T10:46:26.293Z,100433.66
2023-02-02T10:47:32.360Z,100439.75
2023-02-02T10:48:36.153Z,100438.19
2023-02-02T10:49:40.275Z,100441.63
2023-02-02T10:50:49.040Z,100438.22
2023-02-02T10:52:13.914Z,100442.53
2023-02-02T10:53:17.225Z,100440.19
2023-02-02T10:54:55.816Z,100450.75
2023-02-02T10:56:12.237Z,100444.69
2023-02-02T10:57:20.015Z,100451.56
2023-02-02T10:58:30.827Z,100448.94
2023-02-02T10:59:36.041Z,100444.31
2023-02-02T11:00:54.669Z,100436.47
2023-02-02T11:02:08.637Z,100431.50
2023-02-02T11:03:20.325Z,100450.69
2023-02-02T11:04:41.903Z,100460.16
2023-02-02T11:06:03.748Z,100451.63
2023-02-02T11:07:05.758Z,100454.31
2023-02-02T11:08:20.297Z,100453.56
2023-02-02T11:09:26.592Z,100454.31
2023-02-02T11:10:28.821Z,100444.25
2023-02-02T11:11:40.061Z,100447.78
2023-02-02T11:12:46.988Z,100442.84
2023-02-02T11:14:15.679Z,100455.94
2023-02-02T11:15:25.921Z,100444.75
2023-02-02T11:16:41.437Z,100444.88
2023-02-02T11:17:44.443Z,100445.94
2023-02-02T11:18:46.585Z,100445.81
2023-02-02T11:19:50.006Z,100449.19
2023-02-02T11:20:52.030Z,100457.00
2023-02-02T11:21:57.384Z,100460.28
2023-02-02T11:23:04.464Z,100450.75
2023-02-02T11:24:23.667Z,100449.31
2023-02-02T11:25:37.189Z,100451.00
2023-02-02T11:26:49.165Z,100453.59
2023-02-02T11:27:51.902Z,100445.75
2023-02-02T11:28:58.707Z,100452.72
2023-02-02T11:30:22.995Z,100445.09
2023-02-02T11:31:37.478Z,100441.84
2023-02-02T11:32:39.630Z,100446.91
2023-02-02T11:33:41.549Z,100462.38
2023-02-02T11:34:43.559Z,100454.69
2023-02-02T11:35:57.311Z,100461.66
2023-02-02T11:37:22.270Z,100454.16
2023-02-02T11:38:24.957Z,100454.69
2023-02-02T11:39:28.130Z,100458.13
2023-02-02T11:40:34.876Z,100456.56
2023-02-02T11:41:38.706Z,100464.47
2023-02-02T11:42:47.781Z,100459.41
2023-02-02T11:43:55.358Z,100463.78
2023-02-02T11:44:59.301Z,100463.06
2023-02-02T11:46:17.939Z,100465.44
2023-02-02T11:47:28.078Z,100465.09
2023-02-02T11:48:38.646Z,100467.66
2023-02-02T11:49:44.298Z,100484.03
2023-02-02T11:50:49.628Z,100480.50
2023-02-02T11:52:00.589Z,100478.69
2023-02-02T11:53:02.868Z,100475.06
2023-02-02T11:54:18.365Z,100481.00
2023-02-02T11:55:27.357Z,100467.09
2023-02-02T11:56:29.543Z,100470.66
2023-02-02T11:57:31.748Z,100482.75
2023-02-02T11:58:56.722Z,100477.53
2023-02-02T12:00:10.731Z,100490.47
2023-02-02T12:01:32.682Z,100494.72
2023-02-02T12:02:34.838Z,100482.63
2023-02-02T12:03:40.248Z,100480.00
2023-02-02T12:04:42.486Z,100483.50
2023-02-02T12:05:48.324Z,100480.69
2023-02-02T12:06:50.580Z,100479.09
2023-02-02T12:07:52.642Z,100474.88
2023-02-02T12:08:58.729Z,100479.28
2023-02-02T12:10:04.782Z,100468.00
2023-02-02T12:11:10.610Z,100473.06
2023-02-02T12:13:14.292Z,100470.03
2023-02-02T12:14:43.326Z,100474.31
2023-02-02T12:15:59.056Z,100476.88
2023-02-02T12:17:00.978Z,100481.25
2023-02-02T12:18:31.067Z,100487.38
2023-02-02T12:19:56.599Z,100483.06
2023-02-02T12:21:03.170Z,100486.53
2023-02-02T12:22:30.636Z,100482.38
2023-02-02T12:23:51.746Z,100483.25
2023-02-02T12:25:03.634Z,100486.53
2023-02-02T12:26:29.597Z,100486.53
2023-02-02T12:27:57.919Z,100488.97
2023-02-02T12:29:51.053Z,100481.25
2023-02-02T12:31:07.213Z,100484.66
2023-02-02T12:32:24.743Z,100488.13
2023-02-02T12:33:39.541Z,100491.66
2023-02-02T12:35:06.925Z,100497.56
2023-02-02T12:36:27.491Z,100491.69
2023-02-02T12:37:54.788Z,100490.06
2023-02-02T12:39:17.384Z,100496.84
2023-02-02T12:41:00.841Z,100494.28
2023-02-02T12:42:27.807Z,100500.38
2023-02-02T12:43:39.257Z,100504.66